sensor_id;sensor_type;location;lat;lon;timestamp;P1;durP1;ratioP1;P2;durP2;ratioP2
64520;SDS011;50896;46.714;17.322;2024-03-07T00:00:18;26.20;;;15.10;;
64520;SDS011;50896;46.714;17.322;2024-03-07T00:02:46;27.98;;;16.58;;
64520;SDS011;50896;46.714;17.322;2024-03-07T00:05:15;28.40;;;16.75;;
64520;SDS011;50896;46.714;17.322;2024-03-07T00:07:43;25.75;;;15.80;;
64520;SDS011;50896;46.714;17.322;2024-03-07T00:10:10;28.02;;;16.88;;
64520;SDS011;50896;46.714;17.322;2024-03-07T00:12:37;26.38;;;15.55;;
64520;SDS011;50896;46.714;17.322;2024-03-07T00:15:07;26.65;;;15.43;;
64520;SDS011;50896;46.714;17.322;2024-03-07T00:17:35;26.92;;;15.45;;
64520;SDS011;50896;46.714;17.322;2024-03-07T00:20:05;24.40;;;15.32;;
64520;SDS011;50896;46.714;17.322;2024-03-07T00:22:41;26.40;;;14.88;;
64520;SDS011;50896;46.714;17.322;2024-03-07T00:25:08;23.70;;;15.63;;
64520;SDS011;50896;46.714;17.322;2024-03-07T00:27:36;22.20;;;15.15;;
64520;SDS011;50896;46.714;17.322;2024-03-07T00:30:06;24.55;;;15.35;;
64520;SDS011;50896;46.714;17.322;2024-03-07T00:32:35;26.33;;;15.75;;
64520;SDS011;50896;46.714;17.322;2024-03-07T00:35:06;26.48;;;15.75;;
64520;SDS011;50896;46.714;17.322;2024-03-07T00:37:37;25.50;;;15.55;;
64520;SDS011;50896;46.714;17.322;2024-03-07T00:40:04;23.20;;;15.35;;
64520;SDS011;50896;46.714;17.322;2024-03-07T00:42:32;26.92;;;15.48;;
64520;SDS011;50896;46.714;17.322;2024-03-07T00:45:00;26.60;;;15.80;;
64520;SDS011;50896;46.714;17.322;2024-03-07T00:47:27;26.38;;;16.30;;
64520;SDS011;50896;46.714;17.322;2024-03-07T00:49:54;27.27;;;15.73;;
64520;SDS011;50896;46.714;17.322;2024-03-07T00:52:22;27.02;;;16.35;;
64520;SDS011;50896;46.714;17.322;2024-03-07T00:54:48;23.60;;;14.80;;
64520;SDS011;50896;46.714;17.322;2024-03-07T00:57:16;25.08;;;15.13;;
64520;SDS011;50896;46.714;17.322;2024-03-07T00:59:43;24.55;;;15.07;;
64520;SDS011;50896;46.714;17.322;2024-03-07T01:02:10;23.92;;;14.90;;
64520;SDS011;50896;46.714;17.322;2024-03-07T01:04:37;24.05;;;15.27;;
64520;SDS011;50896;46.714;17.322;2024-03-07T01:07:04;25.15;;;15.55;;
64520;SDS011;50896;46.714;17.322;2024-03-07T01:09:32;24.35;;;14.93;;
64520;SDS011;50896;46.714;17.322;2024-03-07T01:11:59;25.05;;;15.00;;
64520;SDS011;50896;46.714;17.322;2024-03-07T01:14:26;24.52;;;15.48;;
64520;SDS011;50896;46.714;17.322;2024-03-07T01:16:53;26.20;;;15.50;;
64520;SDS011;50896;46.714;17.322;2024-03-07T01:19:20;21.30;;;13.75;;
64520;SDS011;50896;46.714;17.322;2024-03-07T01:21:48;23.55;;;14.80;;
64520;SDS011;50896;46.714;17.322;2024-03-07T01:24:15;24.45;;;14.70;;
64520;SDS011;50896;46.714;17.322;2024-03-07T01:26:47;26.55;;;14.57;;
64520;SDS011;50896;46.714;17.322;2024-03-07T01:29:14;24.35;;;14.38;;
64520;SDS011;50896;46.714;17.322;2024-03-07T01:31:42;22.10;;;14.23;;
64520;SDS011;50896;46.714;17.322;2024-03-07T01:34:09;23.83;;;14.95;;
64520;SDS011;50896;46.714;17.322;2024-03-07T01:36:37;22.63;;;14.00;;
64520;SDS011;50896;46.714;17.322;2024-03-07T01:39:04;23.33;;;14.07;;
64520;SDS011;50896;46.714;17.322;2024-03-07T01:41:31;20.92;;;13.63;;
64520;SDS011;50896;46.714;17.322;2024-03-07T01:44:01;22.73;;;14.35;;
64520;SDS011;50896;46.714;17.322;2024-03-07T01:46:28;24.75;;;14.80;;
64520;SDS011;50896;46.714;17.322;2024-03-07T01:48:56;23.08;;;13.93;;
64520;SDS011;50896;46.714;17.322;2024-03-07T01:51:23;23.23;;;14.27;;
64520;SDS011;50896;46.714;17.322;2024-03-07T01:53:50;23.00;;;14.50;;
64520;SDS011;50896;46.714;17.322;2024-03-07T01:56:18;24.52;;;14.80;;
64520;SDS011;50896;46.714;17.322;2024-03-07T01:58:49;22.30;;;13.60;;
64520;SDS011;50896;46.714;17.322;2024-03-07T02:01:17;22.48;;;14.18;;
64520;SDS011;50896;46.714;17.322;2024-03-07T02:03:44;22.42;;;14.63;;
64520;SDS011;50896;46.714;17.322;2024-03-07T02:06:11;23.48;;;14.18;;
64520;SDS011;50896;46.714;17.322;2024-03-07T02:08:39;20.30;;;13.23;;
64520;SDS011;50896;46.714;17.322;2024-03-07T02:11:06;22.10;;;13.73;;
64520;SDS011;50896;46.714;17.322;2024-03-07T02:13:33;23.13;;;13.60;;
64520;SDS011;50896;46.714;17.322;2024-03-07T02:15:59;21.15;;;13.77;;
64520;SDS011;50896;46.714;17.322;2024-03-07T02:18:26;19.45;;;12.98;;
64520;SDS011;50896;46.714;17.322;2024-03-07T02:20:53;20.33;;;13.43;;
64520;SDS011;50896;46.714;17.322;2024-03-07T02:23:21;25.13;;;13.80;;
64520;SDS011;50896;46.714;17.322;2024-03-07T02:25:48;21.60;;;13.80;;
64520;SDS011;50896;46.714;17.322;2024-03-07T02:28:15;20.75;;;13.30;;
64520;SDS011;50896;46.714;17.322;2024-03-07T02:30:42;21.35;;;13.52;;
64520;SDS011;50896;46.714;17.322;2024-03-07T02:33:12;20.95;;;12.93;;
64520;SDS011;50896;46.714;17.322;2024-03-07T02:35:39;20.63;;;13.15;;
64520;SDS011;50896;46.714;17.322;2024-03-07T02:38:06;22.42;;;14.68;;
64520;SDS011;50896;46.714;17.322;2024-03-07T02:40:33;20.63;;;13.07;;
64520;SDS011;50896;46.714;17.322;2024-03-07T02:43:00;19.48;;;13.20;;
64520;SDS011;50896;46.714;17.322;2024-03-07T02:45:26;20.65;;;13.18;;
64520;SDS011;50896;46.714;17.322;2024-03-07T02:47:53;21.77;;;13.07;;
64520;SDS011;50896;46.714;17.322;2024-03-07T02:50:21;20.73;;;12.98;;
64520;SDS011;50896;46.714;17.322;2024-03-07T02:52:49;20.85;;;13.52;;
64520;SDS011;50896;46.714;17.322;2024-03-07T02:55:17;21.77;;;13.38;;
64520;SDS011;50896;46.714;17.322;2024-03-07T02:57:44;18.52;;;12.43;;
64520;SDS011;50896;46.714;17.322;2024-03-07T03:00:14;17.98;;;12.25;;
64520;SDS011;50896;46.714;17.322;2024-03-07T03:02:53;19.88;;;13.70;;
64520;SDS011;50896;46.714;17.322;2024-03-07T03:05:21;20.38;;;13.18;;
64520;SDS011;50896;46.714;17.322;2024-03-07T03:07:48;21.52;;;13.55;;
64520;SDS011;50896;46.714;17.322;2024-03-07T03:10:23;19.00;;;12.93;;
64520;SDS011;50896;46.714;17.322;2024-03-07T03:12:53;17.63;;;12.05;;
64520;SDS011;50896;46.714;17.322;2024-03-07T03:15:22;17.75;;;12.48;;
64520;SDS011;50896;46.714;17.322;2024-03-07T03:17:51;17.77;;;11.85;;
64520;SDS011;50896;46.714;17.322;2024-03-07T03:20:18;19.92;;;13.05;;
64520;SDS011;50896;46.714;17.322;2024-03-07T03:22:52;19.13;;;13.85;;
64520;SDS011;50896;46.714;17.322;2024-03-07T03:25:39;21.98;;;12.82;;
64520;SDS011;50896;46.714;17.322;2024-03-07T03:28:07;21.13;;;13.23;;
64520;SDS011;50896;46.714;17.322;2024-03-07T03:30:37;18.20;;;12.77;;
64520;SDS011;50896;46.714;17.322;2024-03-07T03:33:05;18.38;;;12.25;;
64520;SDS011;50896;46.714;17.322;2024-03-07T03:35:33;18.92;;;12.68;;
64520;SDS011;50896;46.714;17.322;2024-03-07T03:38:00;19.67;;;12.80;;
64520;SDS011;50896;46.714;17.322;2024-03-07T03:40:27;18.02;;;12.60;;
64520;SDS011;50896;46.714;17.322;2024-03-07T03:42:54;19.15;;;12.48;;
64520;SDS011;50896;46.714;17.322;2024-03-07T03:45:21;17.17;;;11.73;;
64520;SDS011;50896;46.714;17.322;2024-03-07T03:47:48;17.35;;;11.70;;
64520;SDS011;50896;46.714;17.322;2024-03-07T03:50:15;16.60;;;11.85;;
64520;SDS011;50896;46.714;17.322;2024-03-07T03:52:42;17.77;;;12.35;;
64520;SDS011;50896;46.714;17.322;2024-03-07T03:55:09;17.05;;;12.05;;
64520;SDS011;50896;46.714;17.322;2024-03-07T03:57:38;17.50;;;12.35;;
64520;SDS011;50896;46.714;17.322;2024-03-07T04:00:06;18.73;;;13.23;;
64520;SDS011;50896;46.714;17.322;2024-03-07T04:02:42;17.48;;;12.30;;
64520;SDS011;50896;46.714;17.322;2024-03-07T04:05:11;18.30;;;12.60;;
64520;SDS011;50896;46.714;17.322;2024-03-07T04:07:40;18.20;;;12.40;;
64520;SDS011;50896;46.714;17.322;2024-03-07T04:10:11;18.80;;;12.20;;
64520;SDS011;50896;46.714;17.322;2024-03-07T04:12:39;18.55;;;12.77;;
64520;SDS011;50896;46.714;17.322;2024-03-07T04:15:08;17.43;;;12.63;;
64520;SDS011;50896;46.714;17.322;2024-03-07T04:17:36;18.25;;;12.25;;
64520;SDS011;50896;46.714;17.322;2024-03-07T04:20:05;18.63;;;12.65;;
64520;SDS011;50896;46.714;17.322;2024-03-07T04:22:33;17.00;;;12.18;;
64520;SDS011;50896;46.714;17.322;2024-03-07T04:25:01;16.38;;;12.00;;
64520;SDS011;50896;46.714;17.322;2024-03-07T04:27:28;17.13;;;12.02;;
64520;SDS011;50896;46.714;17.322;2024-03-07T04:29:55;17.27;;;12.13;;
64520;SDS011;50896;46.714;17.322;2024-03-07T04:32:22;19.23;;;12.07;;
64520;SDS011;50896;46.714;17.322;2024-03-07T04:34:50;17.58;;;12.63;;
64520;SDS011;50896;46.714;17.322;2024-03-07T04:37:16;16.95;;;11.52;;
64520;SDS011;50896;46.714;17.322;2024-03-07T04:39:43;16.40;;;11.75;;
64520;SDS011;50896;46.714;17.322;2024-03-07T04:42:10;19.23;;;12.93;;
64520;SDS011;50896;46.714;17.322;2024-03-07T04:44:37;17.45;;;11.98;;
64520;SDS011;50896;46.714;17.322;2024-03-07T04:47:05;16.20;;;12.00;;
64520;SDS011;50896;46.714;17.322;2024-03-07T04:49:33;19.27;;;12.65;;
64520;SDS011;50896;46.714;17.322;2024-03-07T04:52:01;21.45;;;13.02;;
64520;SDS011;50896;46.714;17.322;2024-03-07T04:54:29;18.80;;;12.85;;
64520;SDS011;50896;46.714;17.322;2024-03-07T04:56:58;17.97;;;12.67;;
64520;SDS011;50896;46.714;17.322;2024-03-07T04:59:25;19.52;;;13.25;;
64520;SDS011;50896;46.714;17.322;2024-03-07T05:01:52;19.40;;;13.35;;
64520;SDS011;50896;46.714;17.322;2024-03-07T05:04:19;19.67;;;12.95;;
64520;SDS011;50896;46.714;17.322;2024-03-07T05:06:46;17.42;;;12.23;;
64520;SDS011;50896;46.714;17.322;2024-03-07T05:09:15;18.83;;;12.80;;
64520;SDS011;50896;46.714;17.322;2024-03-07T05:11:49;19.80;;;13.88;;
64520;SDS011;50896;46.714;17.322;2024-03-07T05:14:18;21.52;;;13.52;;
64520;SDS011;50896;46.714;17.322;2024-03-07T05:16:46;19.85;;;13.00;;
64520;SDS011;50896;46.714;17.322;2024-03-07T05:19:32;21.83;;;13.48;;
64520;SDS011;50896;46.714;17.322;2024-03-07T05:22:00;24.50;;;15.02;;
64520;SDS011;50896;46.714;17.322;2024-03-07T05:24:27;19.77;;;13.30;;
64520;SDS011;50896;46.714;17.322;2024-03-07T05:26:54;23.27;;;13.93;;
64520;SDS011;50896;46.714;17.322;2024-03-07T05:29:23;18.60;;;13.43;;
64520;SDS011;50896;46.714;17.322;2024-03-07T05:31:50;19.10;;;13.90;;
64520;SDS011;50896;46.714;17.322;2024-03-07T05:34:17;18.98;;;12.63;;
64520;SDS011;50896;46.714;17.322;2024-03-07T05:36:46;23.20;;;14.60;;
64520;SDS011;50896;46.714;17.322;2024-03-07T05:39:14;20.73;;;13.82;;
64520;SDS011;50896;46.714;17.322;2024-03-07T05:41:43;21.45;;;14.02;;
64520;SDS011;50896;46.714;17.322;2024-03-07T05:44:15;21.83;;;13.20;;
64520;SDS011;50896;46.714;17.322;2024-03-07T05:46:42;19.70;;;13.25;;
64520;SDS011;50896;46.714;17.322;2024-03-07T05:49:16;21.40;;;14.60;;
64520;SDS011;50896;46.714;17.322;2024-03-07T05:51:43;22.77;;;14.70;;
64520;SDS011;50896;46.714;17.322;2024-03-07T05:54:13;21.20;;;14.32;;
64520;SDS011;50896;46.714;17.322;2024-03-07T05:56:41;21.20;;;14.40;;
64520;SDS011;50896;46.714;17.322;2024-03-07T05:59:08;21.48;;;13.93;;
64520;SDS011;50896;46.714;17.322;2024-03-07T06:01:38;22.00;;;13.57;;
64520;SDS011;50896;46.714;17.322;2024-03-07T06:04:06;22.80;;;13.70;;
64520;SDS011;50896;46.714;17.322;2024-03-07T06:06:34;20.98;;;13.15;;
64520;SDS011;50896;46.714;17.322;2024-03-07T06:09:03;19.33;;;12.45;;
64520;SDS011;50896;46.714;17.322;2024-03-07T06:11:34;18.20;;;12.05;;
64520;SDS011;50896;46.714;17.322;2024-03-07T06:14:02;21.33;;;12.80;;
64520;SDS011;50896;46.714;17.322;2024-03-07T06:16:33;17.88;;;11.82;;
64520;SDS011;50896;46.714;17.322;2024-03-07T06:19:03;17.23;;;11.50;;
64520;SDS011;50896;46.714;17.322;2024-03-07T06:21:34;16.85;;;11.23;;
64520;SDS011;50896;46.714;17.322;2024-03-07T06:24:02;17.27;;;11.55;;
64520;SDS011;50896;46.714;17.322;2024-03-07T06:26:30;15.25;;;10.25;;
64520;SDS011;50896;46.714;17.322;2024-03-07T06:29:25;13.57;;;9.23;;
64520;SDS011;50896;46.714;17.322;2024-03-07T06:31:54;14.20;;;9.48;;
64520;SDS011;50896;46.714;17.322;2024-03-07T06:34:21;11.88;;;8.57;;
64520;SDS011;50896;46.714;17.322;2024-03-07T06:36:48;10.70;;;7.22;;
64520;SDS011;50896;46.714;17.322;2024-03-07T06:39:15;12.10;;;6.90;;
64520;SDS011;50896;46.714;17.322;2024-03-07T06:41:41;9.10;;;6.38;;
64520;SDS011;50896;46.714;17.322;2024-03-07T06:44:09;6.82;;;5.28;;
64520;SDS011;50896;46.714;17.322;2024-03-07T06:46:36;6.85;;;4.75;;
64520;SDS011;50896;46.714;17.322;2024-03-07T06:49:03;5.55;;;4.22;;
64520;SDS011;50896;46.714;17.322;2024-03-07T06:51:37;5.40;;;3.90;;
64520;SDS011;50896;46.714;17.322;2024-03-07T06:54:05;6.22;;;3.80;;
64520;SDS011;50896;46.714;17.322;2024-03-07T06:56:33;5.18;;;3.50;;
64520;SDS011;50896;46.714;17.322;2024-03-07T06:59:00;5.10;;;3.60;;
64520;SDS011;50896;46.714;17.322;2024-03-07T07:01:31;5.88;;;3.47;;
64520;SDS011;50896;46.714;17.322;2024-03-07T07:03:58;6.43;;;3.55;;
64520;SDS011;50896;46.714;17.322;2024-03-07T07:06:25;5.28;;;3.38;;
64520;SDS011;50896;46.714;17.322;2024-03-07T07:08:52;6.05;;;3.55;;
64520;SDS011;50896;46.714;17.322;2024-03-07T07:11:19;5.00;;;3.30;;
64520;SDS011;50896;46.714;17.322;2024-03-07T07:13:46;5.15;;;3.60;;
64520;SDS011;50896;46.714;17.322;2024-03-07T07:16:13;5.22;;;3.38;;
64520;SDS011;50896;46.714;17.322;2024-03-07T07:18:42;5.70;;;3.65;;
64520;SDS011;50896;46.714;17.322;2024-03-07T07:21:10;5.53;;;3.90;;
64520;SDS011;50896;46.714;17.322;2024-03-07T07:23:38;5.68;;;3.58;;
64520;SDS011;50896;46.714;17.322;2024-03-07T07:26:05;8.15;;;4.40;;
64520;SDS011;50896;46.714;17.322;2024-03-07T07:28:32;4.93;;;3.85;;
64520;SDS011;50896;46.714;17.322;2024-03-07T07:30:59;7.78;;;4.50;;
64520;SDS011;50896;46.714;17.322;2024-03-07T07:33:26;6.57;;;4.63;;
64520;SDS011;50896;46.714;17.322;2024-03-07T07:35:53;6.68;;;4.45;;
64520;SDS011;50896;46.714;17.322;2024-03-07T07:38:20;7.75;;;4.78;;
64520;SDS011;50896;46.714;17.322;2024-03-07T07:40:48;7.43;;;4.60;;
64520;SDS011;50896;46.714;17.322;2024-03-07T07:43:16;5.90;;;4.10;;
64520;SDS011;50896;46.714;17.322;2024-03-07T07:45:58;7.68;;;4.82;;
64520;SDS011;50896;46.714;17.322;2024-03-07T07:48:27;5.18;;;3.80;;
64520;SDS011;50896;46.714;17.322;2024-03-07T07:50:54;5.80;;;4.05;;
64520;SDS011;50896;46.714;17.322;2024-03-07T07:53:21;5.75;;;3.80;;
64520;SDS011;50896;46.714;17.322;2024-03-07T07:55:48;4.82;;;3.67;;
64520;SDS011;50896;46.714;17.322;2024-03-07T07:58:15;7.35;;;4.30;;
64520;SDS011;50896;46.714;17.322;2024-03-07T08:00:42;6.05;;;4.00;;
64520;SDS011;50896;46.714;17.322;2024-03-07T08:03:10;7.75;;;4.57;;
64520;SDS011;50896;46.714;17.322;2024-03-07T08:05:37;6.15;;;4.22;;
64520;SDS011;50896;46.714;17.322;2024-03-07T08:08:06;5.90;;;3.92;;
64520;SDS011;50896;46.714;17.322;2024-03-07T08:10:35;6.30;;;4.00;;
64520;SDS011;50896;46.714;17.322;2024-03-07T08:13:03;6.07;;;3.45;;
64520;SDS011;50896;46.714;17.322;2024-03-07T08:15:39;6.60;;;3.75;;
64520;SDS011;50896;46.714;17.322;2024-03-07T08:18:07;7.00;;;4.15;;
64520;SDS011;50896;46.714;17.322;2024-03-07T08:20:37;5.22;;;3.47;;
64520;SDS011;50896;46.714;17.322;2024-03-07T08:23:06;5.95;;;4.00;;
64520;SDS011;50896;46.714;17.322;2024-03-07T08:25:33;6.10;;;4.20;;
64520;SDS011;50896;46.714;17.322;2024-03-07T08:28:00;6.82;;;3.95;;
64520;SDS011;50896;46.714;17.322;2024-03-07T08:30:27;7.63;;;4.50;;
64520;SDS011;50896;46.714;17.322;2024-03-07T08:32:56;6.75;;;4.40;;
64520;SDS011;50896;46.714;17.322;2024-03-07T08:35:25;6.68;;;4.95;;
64520;SDS011;50896;46.714;17.322;2024-03-07T08:37:53;8.30;;;4.88;;
64520;SDS011;50896;46.714;17.322;2024-03-07T08:40:23;6.72;;;4.40;;
64520;SDS011;50896;46.714;17.322;2024-03-07T08:42:55;6.47;;;4.63;;
64520;SDS011;50896;46.714;17.322;2024-03-07T08:45:24;8.73;;;4.93;;
64520;SDS011;50896;46.714;17.322;2024-03-07T08:47:52;8.18;;;5.60;;
64520;SDS011;50896;46.714;17.322;2024-03-07T08:50:26;9.20;;;5.30;;
64520;SDS011;50896;46.714;17.322;2024-03-07T08:52:55;8.25;;;5.72;;
64520;SDS011;50896;46.714;17.322;2024-03-07T08:55:22;7.88;;;5.40;;
64520;SDS011;50896;46.714;17.322;2024-03-07T08:57:51;7.72;;;5.50;;
64520;SDS011;50896;46.714;17.322;2024-03-07T09:00:18;8.38;;;5.78;;
64520;SDS011;50896;46.714;17.322;2024-03-07T09:02:53;9.05;;;6.18;;
64520;SDS011;50896;46.714;17.322;2024-03-07T09:05:27;7.93;;;5.88;;
64520;SDS011;50896;46.714;17.322;2024-03-07T09:07:55;9.05;;;6.50;;
64520;SDS011;50896;46.714;17.322;2024-03-07T09:10:22;8.15;;;6.50;;
64520;SDS011;50896;46.714;17.322;2024-03-07T09:12:52;10.00;;;6.70;;
64520;SDS011;50896;46.714;17.322;2024-03-07T09:15:21;9.33;;;6.67;;
64520;SDS011;50896;46.714;17.322;2024-03-07T09:17:50;10.88;;;7.43;;
64520;SDS011;50896;46.714;17.322;2024-03-07T09:20:18;10.63;;;7.65;;
64520;SDS011;50896;46.714;17.322;2024-03-07T09:22:47;11.23;;;7.40;;
64520;SDS011;50896;46.714;17.322;2024-03-07T09:25:14;12.32;;;8.55;;
64520;SDS011;50896;46.714;17.322;2024-03-07T09:27:43;11.18;;;7.80;;
64520;SDS011;50896;46.714;17.322;2024-03-07T09:30:10;10.82;;;7.93;;
64520;SDS011;50896;46.714;17.322;2024-03-07T09:32:43;9.50;;;7.30;;
64520;SDS011;50896;46.714;17.322;2024-03-07T09:35:10;13.10;;;8.18;;
64520;SDS011;50896;46.714;17.322;2024-03-07T09:37:42;10.20;;;8.40;;
64520;SDS011;50896;46.714;17.322;2024-03-07T09:40:10;11.00;;;8.25;;
64520;SDS011;50896;46.714;17.322;2024-03-07T09:42:43;11.18;;;8.15;;
64520;SDS011;50896;46.714;17.322;2024-03-07T09:45:19;10.98;;;8.15;;
64520;SDS011;50896;46.714;17.322;2024-03-07T09:47:49;11.85;;;8.68;;
64520;SDS011;50896;46.714;17.322;2024-03-07T09:50:20;11.90;;;8.10;;
64520;SDS011;50896;46.714;17.322;2024-03-07T09:52:49;11.52;;;8.55;;
64520;SDS011;50896;46.714;17.322;2024-03-07T09:55:19;10.70;;;8.13;;
64520;SDS011;50896;46.714;17.322;2024-03-07T09:57:48;10.40;;;8.25;;
64520;SDS011;50896;46.714;17.322;2024-03-07T10:00:17;10.23;;;8.05;;
64520;SDS011;50896;46.714;17.322;2024-03-07T10:02:56;10.20;;;7.53;;
64520;SDS011;50896;46.714;17.322;2024-03-07T10:05:26;9.82;;;7.97;;
64520;SDS011;50896;46.714;17.322;2024-03-07T10:07:55;12.23;;;8.52;;
64520;SDS011;50896;46.714;17.322;2024-03-07T10:10:22;10.23;;;7.93;;
64520;SDS011;50896;46.714;17.322;2024-03-07T10:12:49;8.65;;;7.15;;
64520;SDS011;50896;46.714;17.322;2024-03-07T10:15:19;7.45;;;6.25;;
64520;SDS011;50896;46.714;17.322;2024-03-07T10:17:46;7.32;;;5.78;;
64520;SDS011;50896;46.714;17.322;2024-03-07T10:20:14;7.22;;;5.43;;
64520;SDS011;50896;46.714;17.322;2024-03-07T10:22:47;7.25;;;5.63;;
64520;SDS011;50896;46.714;17.322;2024-03-07T10:25:18;7.40;;;6.05;;
64520;SDS011;50896;46.714;17.322;2024-03-07T10:27:47;8.80;;;5.47;;
64520;SDS011;50896;46.714;17.322;2024-03-07T10:30:15;6.00;;;5.13;;
64520;SDS011;50896;46.714;17.322;2024-03-07T10:32:48;5.55;;;4.85;;
64520;SDS011;50896;46.714;17.322;2024-03-07T10:35:20;5.55;;;4.63;;
64520;SDS011;50896;46.714;17.322;2024-03-07T10:37:50;5.53;;;4.95;;
64520;SDS011;50896;46.714;17.322;2024-03-07T10:40:20;6.68;;;5.22;;
64520;SDS011;50896;46.714;17.322;2024-03-07T10:42:49;5.82;;;4.78;;
64520;SDS011;50896;46.714;17.322;2024-03-07T10:45:20;5.65;;;4.43;;
64520;SDS011;50896;46.714;17.322;2024-03-07T10:47:49;5.93;;;4.30;;
64520;SDS011;50896;46.714;17.322;2024-03-07T10:50:47;7.57;;;4.93;;
64520;SDS011;50896;46.714;17.322;2024-03-07T10:53:31;7.32;;;5.50;;
64520;SDS011;50896;46.714;17.322;2024-03-07T11:01:48;7.82;;;5.85;;
64520;SDS011;50896;46.714;17.322;2024-03-07T11:04:22;7.88;;;6.10;;
64520;SDS011;50896;46.714;17.322;2024-03-07T11:06:49;6.25;;;5.03;;
64520;SDS011;50896;46.714;17.322;2024-03-07T11:09:16;7.18;;;5.65;;
64520;SDS011;50896;46.714;17.322;2024-03-07T11:11:49;6.93;;;5.25;;
64520;SDS011;50896;46.714;17.322;2024-03-07T11:14:17;6.03;;;5.20;;
64520;SDS011;50896;46.714;17.322;2024-03-07T11:16:44;6.70;;;5.35;;
64520;SDS011;50896;46.714;17.322;2024-03-07T11:19:28;6.25;;;4.88;;
64520;SDS011;50896;46.714;17.322;2024-03-07T11:21:58;6.95;;;6.03;;
64520;SDS011;50896;46.714;17.322;2024-03-07T11:24:29;7.75;;;6.35;;
64520;SDS011;50896;46.714;17.322;2024-03-07T11:27:04;9.00;;;7.07;;
64520;SDS011;50896;46.714;17.322;2024-03-07T11:29:41;10.05;;;7.57;;
64520;SDS011;50896;46.714;17.322;2024-03-07T11:32:21;9.73;;;7.30;;
64520;SDS011;50896;46.714;17.322;2024-03-07T11:34:50;9.90;;;7.93;;
64520;SDS011;50896;46.714;17.322;2024-03-07T11:37:40;9.65;;;8.02;;
64520;SDS011;50896;46.714;17.322;2024-03-07T11:40:36;10.90;;;7.95;;
64520;SDS011;50896;46.714;17.322;2024-03-07T11:43:00;9.88;;;7.53;;
64520;SDS011;50896;46.714;17.322;2024-03-07T11:45:31;9.57;;;7.50;;
64520;SDS011;50896;46.714;17.322;2024-03-07T11:48:19;9.05;;;7.13;;
64520;SDS011;50896;46.714;17.322;2024-03-07T11:50:48;7.13;;;6.33;;
64520;SDS011;50896;46.714;17.322;2024-03-07T11:53:15;9.23;;;7.50;;
64520;SDS011;50896;46.714;17.322;2024-03-07T11:55:43;10.35;;;7.93;;
64520;SDS011;50896;46.714;17.322;2024-03-07T11:58:14;10.90;;;7.50;;
64520;SDS011;50896;46.714;17.322;2024-03-07T12:00:43;10.40;;;7.22;;
64520;SDS011;50896;46.714;17.322;2024-03-07T12:03:12;10.70;;;7.95;;
64520;SDS011;50896;46.714;17.322;2024-03-07T12:05:40;7.70;;;6.47;;
64520;SDS011;50896;46.714;17.322;2024-03-07T12:08:08;9.90;;;6.72;;
64520;SDS011;50896;46.714;17.322;2024-03-07T12:10:37;9.60;;;7.20;;
64520;SDS011;50896;46.714;17.322;2024-03-07T12:13:05;8.68;;;6.53;;
64520;SDS011;50896;46.714;17.322;2024-03-07T12:15:33;9.70;;;6.53;;
64520;SDS011;50896;46.714;17.322;2024-03-07T12:18:02;8.85;;;5.93;;
64520;SDS011;50896;46.714;17.322;2024-03-07T12:20:29;6.90;;;5.40;;
64520;SDS011;50896;46.714;17.322;2024-03-07T12:23:03;8.32;;;5.75;;
64520;SDS011;50896;46.714;17.322;2024-03-07T12:25:34;8.07;;;5.10;;
64520;SDS011;50896;46.714;17.322;2024-03-07T12:28:06;7.82;;;5.72;;
64520;SDS011;50896;46.714;17.322;2024-03-07T12:33:18;6.95;;;5.22;;
64520;SDS011;50896;46.714;17.322;2024-03-07T12:35:50;6.53;;;5.43;;
64520;SDS011;50896;46.714;17.322;2024-03-07T12:38:19;7.50;;;5.70;;
64520;SDS011;50896;46.714;17.322;2024-03-07T12:41:02;7.68;;;5.45;;
64520;SDS011;50896;46.714;17.322;2024-03-07T12:43:33;7.15;;;5.38;;
64520;SDS011;50896;46.714;17.322;2024-03-07T12:46:01;6.88;;;5.22;;
64520;SDS011;50896;46.714;17.322;2024-03-07T12:48:28;7.00;;;5.70;;
64520;SDS011;50896;46.714;17.322;2024-03-07T12:50:54;7.55;;;5.30;;
64520;SDS011;50896;46.714;17.322;2024-03-07T12:53:22;6.78;;;5.55;;
64520;SDS011;50896;46.714;17.322;2024-03-07T12:55:50;7.22;;;5.63;;
64520;SDS011;50896;46.714;17.322;2024-03-07T12:58:19;7.45;;;5.70;;
64520;SDS011;50896;46.714;17.322;2024-03-07T13:00:52;11.38;;;8.10;;
64520;SDS011;50896;46.714;17.322;2024-03-07T13:03:23;9.55;;;5.93;;
64520;SDS011;50896;46.714;17.322;2024-03-07T13:05:57;7.75;;;6.30;;
64520;SDS011;50896;46.714;17.322;2024-03-07T13:08:29;7.03;;;5.53;;
64520;SDS011;50896;46.714;17.322;2024-03-07T13:10:57;7.05;;;5.60;;
64520;SDS011;50896;46.714;17.322;2024-03-07T13:13:25;42.20;;;27.25;;
64520;SDS011;50896;46.714;17.322;2024-03-07T13:15:52;12.00;;;8.57;;
64520;SDS011;50896;46.714;17.322;2024-03-07T13:18:21;48.70;;;25.17;;
64520;SDS011;50896;46.714;17.322;2024-03-07T13:20:48;20.30;;;12.68;;
64520;SDS011;50896;46.714;17.322;2024-03-07T13:23:16;51.72;;;26.02;;
64520;SDS011;50896;46.714;17.322;2024-03-07T13:25:42;24.33;;;16.98;;
64520;SDS011;50896;46.714;17.322;2024-03-07T13:28:14;5.57;;;4.63;;
64520;SDS011;50896;46.714;17.322;2024-03-07T13:30:50;8.35;;;5.00;;
64520;SDS011;50896;46.714;17.322;2024-03-07T13:33:17;6.65;;;5.03;;
64520;SDS011;50896;46.714;17.322;2024-03-07T13:35:45;6.22;;;4.63;;
64520;SDS011;50896;46.714;17.322;2024-03-07T13:38:12;7.60;;;4.63;;
64520;SDS011;50896;46.714;17.322;2024-03-07T13:40:39;8.98;;;5.57;;
64520;SDS011;50896;46.714;17.322;2024-03-07T13:43:07;6.90;;;5.22;;
64520;SDS011;50896;46.714;17.322;2024-03-07T13:45:34;6.13;;;4.72;;
64520;SDS011;50896;46.714;17.322;2024-03-07T13:48:06;6.78;;;5.00;;
64520;SDS011;50896;46.714;17.322;2024-03-07T13:50:37;7.35;;;4.97;;
64520;SDS011;50896;46.714;17.322;2024-03-07T13:53:28;7.85;;;5.45;;
64520;SDS011;50896;46.714;17.322;2024-03-07T14:07:56;5.38;;;3.95;;
64520;SDS011;50896;46.714;17.322;2024-03-07T14:13:45;4.55;;;3.03;;
64520;SDS011;50896;46.714;17.322;2024-03-07T14:16:47;4.65;;;3.30;;
64520;SDS011;50896;46.714;17.322;2024-03-07T14:28:26;4.13;;;3.13;;
64520;SDS011;50896;46.714;17.322;2024-03-07T14:31:09;4.03;;;3.25;;
64520;SDS011;50896;46.714;17.322;2024-03-07T14:36:38;3.78;;;3.20;;
64520;SDS011;50896;46.714;17.322;2024-03-07T14:39:11;5.47;;;3.10;;
64520;SDS011;50896;46.714;17.322;2024-03-07T14:41:48;5.53;;;3.58;;
64520;SDS011;50896;46.714;17.322;2024-03-07T14:44:18;4.60;;;3.22;;
64520;SDS011;50896;46.714;17.322;2024-03-07T14:46:47;5.00;;;2.97;;
64520;SDS011;50896;46.714;17.322;2024-03-07T14:49:19;5.47;;;4.07;;
64520;SDS011;50896;46.714;17.322;2024-03-07T14:51:46;4.82;;;3.60;;
64520;SDS011;50896;46.714;17.322;2024-03-07T14:54:25;5.88;;;3.67;;
64520;SDS011;50896;46.714;17.322;2024-03-07T14:56:53;4.55;;;3.33;;
64520;SDS011;50896;46.714;17.322;2024-03-07T14:59:20;5.13;;;3.90;;
64520;SDS011;50896;46.714;17.322;2024-03-07T15:01:48;5.60;;;3.72;;
64520;SDS011;50896;46.714;17.322;2024-03-07T15:04:15;4.75;;;3.72;;
64520;SDS011;50896;46.714;17.322;2024-03-07T15:06:42;5.75;;;3.85;;
64520;SDS011;50896;46.714;17.322;2024-03-07T15:09:10;6.07;;;4.07;;